createdAt,value
2019-03-01T00:02:06.456Z,76.30
2019-03-01T00:05:16.806Z,77.70
2019-03-01T00:08:15.229Z,78.50
2019-03-01T00:11:30.456Z,78.50
2019-03-01T00:14:30.708Z,79.10
2019-03-01T00:17:28.860Z,79.50
2019-03-01T00:21:00.703Z,80.40
2019-03-01T00:24:08.948Z,80.40
2019-03-01T00:27:47.650Z,81.50
2019-03-01T00:30:48.286Z,81.90
2019-03-01T00:34:08.718Z,82.00
2019-03-01T00:37:30.247Z,82.20
2019-03-01T00:40:55.072Z,83.20
2019-03-01T00:44:29.440Z,83.80
2019-03-01T00:46:59.642Z,84.50
2019-03-01T00:49:30.034Z,84.00
2019-03-01T00:51:58.537Z,84.30
2019-03-01T00:54:28.359Z,84.80
2019-03-01T00:56:56.726Z,85.30
2019-03-01T00:59:25.218Z,85.30
2019-03-01T01:01:53.811Z,85.20
2019-03-01T01:04:22.301Z,85.80
2019-03-01T01:06:50.802Z,86.10
2019-03-01T01:09:19.271Z,86.60
2019-03-01T01:11:49.099Z,86.50
2019-03-01T01:14:17.597Z,87.10
2019-03-01T01:16:45.991Z,88.00
2019-03-01T01:19:14.391Z,88.50
2019-03-01T01:21:42.879Z,88.70
2019-03-01T01:24:11.401Z,89.00
2019-03-01T01:26:40.893Z,90.00
2019-03-01T01:29:09.372Z,90.20
2019-03-01T01:31:37.891Z,90.10
2019-03-01T01:34:08.079Z,90.50
2019-03-01T01:36:37.434Z,90.40
2019-03-01T01:39:08.797Z,90.70
2019-03-01T01:41:37.533Z,90.60
2019-03-01T01:44:06.182Z,90.30
2019-03-01T01:46:34.792Z,90.70
2019-03-01T01:49:04.362Z,91.00
2019-03-01T01:51:32.937Z,91.00
2019-03-01T01:54:01.327Z,91.30
2019-03-01T01:56:29.701Z,91.60
2019-03-01T01:58:58.179Z,91.60
2019-03-01T02:01:26.757Z,92.40
2019-03-01T02:03:55.171Z,92.40
2019-03-01T02:06:24.071Z,92.50
2019-03-01T02:08:52.569Z,92.80
2019-03-01T02:11:21.068Z,93.00
2019-03-01T02:13:49.567Z,93.30
2019-03-01T02:16:18.187Z,93.30
2019-03-01T02:18:57.296Z,93.50
2019-03-01T02:21:18.390Z,93.30
2019-03-01T02:23:48.574Z,93.40
2019-03-01T02:26:17.051Z,94.10
2019-03-01T02:28:45.444Z,94.30
2019-03-01T02:31:15.341Z,94.40
2019-03-01T02:33:43.849Z,94.70
2019-03-01T02:36:12.224Z,94.70
2019-03-01T02:38:40.620Z,94.70
2019-03-01T02:41:10.580Z,94.60
2019-03-01T02:43:38.968Z,94.50
2019-03-01T02:46:07.349Z,94.50
2019-03-01T02:48:35.951Z,94.50
2019-03-01T02:51:04.358Z,94.40
2019-03-01T02:53:32.761Z,94.70
2019-03-01T02:56:02.850Z,95.10
2019-03-01T02:58:31.523Z,94.90
2019-03-01T03:01:00.054Z,94.30
2019-03-01T03:03:28.437Z,94.20
2019-03-01T03:06:10.139Z,94.00
2019-03-01T03:08:38.616Z,93.90
2019-03-01T03:11:07.012Z,94.00
2019-03-01T03:13:35.402Z,94.00
2019-03-01T03:16:03.777Z,93.60
2019-03-01T03:18:32.177Z,93.40
2019-03-01T03:21:00.664Z,93.40
2019-03-01T03:23:29.150Z,93.50
2019-03-01T03:25:57.605Z,93.40
2019-03-01T03:28:27.284Z,93.10
2019-03-01T03:30:57.459Z,92.80
2019-03-01T03:33:26.257Z,92.90
2019-03-01T03:35:55.735Z,93.50
2019-03-01T03:38:24.453Z,92.60
2019-03-01T03:40:52.929Z,92.70
2019-03-01T03:43:22.815Z,92.70
2019-03-01T03:45:52.142Z,92.60
2019-03-01T03:48:20.614Z,92.40
2019-03-01T03:50:52.664Z,91.60
2019-03-01T03:53:21.114Z,91.50
2019-03-01T03:55:49.510Z,91.00
2019-03-01T03:58:18.004Z,91.20
2019-03-01T04:00:46.607Z,91.00
2019-03-01T04:03:15.104Z,90.80
2019-03-01T04:05:43.473Z,90.80
2019-03-01T04:08:11.982Z,90.60
2019-03-01T04:10:40.369Z,90.50
2019-03-01T04:13:08.825Z,90.20
2019-03-01T04:15:37.267Z,90.20
2019-03-01T04:18:05.630Z,89.80
2019-03-01T04:20:50.525Z,89.80
2019-03-01T04:23:20.521Z,89.60
2019-03-01T04:25:49.011Z,90.10
2019-03-01T04:28:17.373Z,90.40
2019-03-01T04:30:45.948Z,90.20
2019-03-01T04:33:14.336Z,90.40
2019-03-01T04:35:42.926Z,90.20
2019-03-01T04:38:11.339Z,89.90
2019-03-01T04:40:39.724Z,90.20
2019-03-01T04:43:08.225Z,90.60
2019-03-01T04:45:36.594Z,90.70
2019-03-01T04:48:05.070Z,90.50
2019-03-01T04:50:41.903Z,90.30
2019-03-01T04:53:10.680Z,90.20
2019-03-01T04:55:39.173Z,90.30
2019-03-01T04:58:07.842Z,90.40
2019-03-01T05:00:36.245Z,90.30
2019-03-01T05:03:04.635Z,89.90
2019-03-01T05:05:33.137Z,89.10
2019-03-01T05:08:01.700Z,88.40
2019-03-01T05:10:30.078Z,87.80
2019-03-01T05:12:58.503Z,87.00
2019-03-01T05:15:26.961Z,87.50
2019-03-01T05:17:57.149Z,87.10
2019-03-01T05:20:25.676Z,86.80
2019-03-01T05:22:54.217Z,86.80
2019-03-01T05:25:22.623Z,87.50
2019-03-01T05:27:52.851Z,87.90
2019-03-01T05:30:22.548Z,88.00
2019-03-01T05:32:51.031Z,88.30
2019-03-01T05:35:19.659Z,89.00
2019-03-01T05:37:48.036Z,89.50
2019-03-01T05:40:18.240Z,90.20
2019-03-01T05:42:46.683Z,90.00
2019-03-01T05:45:18.930Z,90.30
2019-03-01T05:47:47.344Z,90.60
2019-03-01T05:50:15.773Z,90.60
2019-03-01T05:52:44.693Z,90.80
2019-03-01T05:55:14.531Z,91.00
2019-03-01T05:58:26.931Z,91.40
2019-03-01T06:00:58.764Z,91.90
2019-03-01T06:04:00.020Z,92.30
2019-03-01T06:07:33.694Z,92.60
2019-03-01T06:11:06.831Z,92.90
2019-03-01T06:14:31.735Z,93.30
2019-03-01T06:17:50.593Z,93.70
2019-03-01T06:21:03.398Z,93.70
2019-03-01T06:23:53.998Z,93.80
2019-03-01T06:27:02.111Z,93.90
2019-03-01T06:30:16.366Z,93.90
2019-03-01T06:33:38.819Z,94.60
2019-03-01T06:37:16.698Z,94.80
2019-03-01T06:40:48.762Z,95.10
2019-03-01T06:44:03.575Z,95.40
2019-03-01T06:47:25.159Z,95.30
2019-03-01T06:50:01.615Z,95.50
2019-03-01T06:52:30.004Z,95.50
2019-03-01T06:55:00.312Z,95.90
2019-03-01T06:57:28.750Z,96.40
2019-03-01T06:59:57.272Z,96.40
2019-03-01T07:02:32.782Z,96.50
2019-03-01T07:05:01.301Z,96.50
2019-03-01T07:07:29.666Z,96.80
2019-03-01T07:09:58.262Z,96.80
2019-03-01T07:12:26.667Z,96.80
2019-03-01T07:14:56.881Z,96.00
2019-03-01T07:17:25.364Z,96.00
2019-03-01T07:19:54.035Z,95.80
2019-03-01T07:22:22.628Z,96.00
2019-03-01T07:24:52.826Z,95.90
2019-03-01T07:27:22.618Z,97.00
2019-03-01T07:29:52.819Z,96.20
2019-03-01T07:32:21.219Z,96.00
2019-03-01T07:34:50.203Z,96.10
2019-03-01T07:37:18.795Z,95.40
2019-03-01T07:39:49.432Z,94.90
2019-03-01T07:42:17.834Z,94.60
2019-03-01T07:44:47.505Z,94.00
2019-03-01T07:47:15.872Z,95.20
2019-03-01T07:49:44.621Z,95.00
2019-03-01T07:52:13.204Z,95.90
2019-03-01T07:54:41.942Z,96.20
2019-03-01T07:57:11.472Z,97.00
2019-03-01T07:59:42.804Z,97.50
2019-03-01T08:02:11.474Z,97.90
2019-03-01T08:04:40.302Z,97.80
2019-03-01T08:07:09.033Z,97.60
2019-03-01T08:09:37.687Z,95.90
2019-03-01T08:12:08.200Z,96.40
2019-03-01T08:14:36.821Z,96.60
2019-03-01T08:17:05.438Z,96.70
2019-03-01T08:19:33.881Z,95.80
2019-03-01T08:22:03.774Z,95.00
2019-03-01T08:24:32.297Z,95.20
2019-03-01T08:27:01.781Z,94.50
2019-03-01T08:29:34.089Z,92.90
2019-03-01T08:32:01.478Z,91.70
2019-03-01T08:34:30.106Z,91.30
2019-03-01T08:36:58.629Z,90.90
2019-03-01T08:39:27.212Z,91.30
2019-03-01T08:42:00.039Z,90.20
2019-03-01T08:44:26.340Z,90.00
2019-03-01T08:46:55.035Z,88.50
2019-03-01T08:49:25.234Z,88.50
2019-03-01T08:51:53.857Z,87.60
2019-03-01T08:54:26.287Z,88.10
2019-03-01T08:56:53.678Z,88.50
2019-03-01T08:59:22.919Z,87.20
2019-03-01T09:01:53.167Z,89.30
2019-03-01T09:04:21.899Z,88.50
2019-03-01T09:06:52.279Z,86.20
2019-03-01T09:09:21.215Z,85.10
2019-03-01T09:11:50.638Z,88.20
2019-03-01T09:14:19.115Z,87.40
2019-03-01T09:16:49.331Z,84.50
2019-03-01T09:19:17.949Z,83.80
2019-03-01T09:21:50.093Z,84.80
2019-03-01T09:24:16.756Z,85.40
2019-03-01T09:26:46.914Z,86.20
2019-03-01T09:29:18.420Z,82.20
2019-03-01T09:31:46.064Z,83.60
2019-03-01T09:34:15.749Z,84.10
2019-03-01T09:36:46.828Z,83.10
2019-03-01T09:39:18.022Z,80.60
2019-03-01T09:41:45.930Z,79.70
2019-03-01T09:44:14.522Z,80.30
2019-03-01T09:46:43.024Z,82.20
2019-03-01T09:49:11.431Z,81.40
2019-03-01T09:51:40.002Z,81.60
2019-03-01T09:54:09.346Z,82.30
2019-03-01T09:56:38.882Z,82.30
2019-03-01T09:59:07.391Z,77.60
2019-03-01T10:01:35.770Z,77.00
2019-03-01T10:04:04.483Z,76.90
2019-03-01T10:06:38.184Z,77.60
2019-03-01T10:09:09.144Z,76.90
2019-03-01T10:11:37.586Z,77.80
2019-03-01T10:14:06.171Z,73.70
2019-03-01T10:16:35.289Z,74.00
2019-03-01T10:19:03.699Z,73.50
2019-03-01T10:21:33.412Z,71.50
2019-03-01T10:24:02.327Z,72.50
2019-03-01T10:26:31.007Z,70.70
2019-03-01T10:28:59.493Z,72.00
2019-03-01T10:31:27.880Z,72.60
2019-03-01T10:33:58.099Z,71.10
2019-03-01T10:36:26.711Z,70.50
2019-03-01T10:38:56.883Z,70.40
2019-03-01T10:41:25.504Z,70.40
2019-03-01T10:43:54.120Z,69.40
2019-03-01T10:46:22.937Z,69.90
2019-03-01T10:48:52.112Z,69.60
2019-03-01T10:51:20.586Z,70.00
2019-03-01T10:53:49.079Z,68.40
2019-03-01T10:56:17.590Z,69.50
2019-03-01T10:58:47.798Z,70.60
2019-03-01T11:01:16.270Z,69.00
2019-03-01T11:03:46.518Z,67.00
2019-03-01T11:06:15.008Z,72.10
2019-03-01T11:08:43.609Z,72.70
2019-03-01T11:11:12.000Z,74.30
2019-03-01T11:13:40.607Z,73.80
2019-03-01T11:16:09.232Z,72.10
2019-03-01T11:18:37.655Z,71.60
2019-03-01T11:21:07.750Z,69.60
2019-03-01T11:23:37.958Z,71.10
2019-03-01T11:26:08.176Z,70.30
2019-03-01T11:28:36.774Z,67.20
2019-03-01T11:31:05.171Z,69.70
2019-03-01T11:33:33.590Z,67.20
2019-03-01T11:36:02.177Z,69.80
2019-03-01T11:38:30.560Z,69.60
2019-03-01T11:41:00.167Z,68.00
2019-03-01T11:43:28.585Z,67.30
2019-03-01T11:46:00.597Z,66.50
2019-03-01T11:48:29.102Z,70.10
2019-03-01T11:51:03.209Z,67.20
2019-03-01T11:53:34.733Z,67.00
2019-03-01T11:56:03.191Z,70.90
2019-03-01T11:58:33.543Z,70.50
2019-03-01T12:01:03.841Z,67.40
2019-03-01T12:03:32.774Z,66.10
2019-03-01T12:06:01.468Z,66.60
2019-03-01T12:08:30.121Z,64.40
2019-03-01T12:10:58.713Z,65.30
2019-03-01T12:13:32.703Z,65.60
2019-03-01T12:16:01.506Z,64.60
2019-03-01T12:18:30.075Z,65.10
2019-03-01T12:21:01.016Z,65.70
2019-03-01T12:23:32.280Z,65.20
2019-03-01T12:26:01.076Z,65.70
2019-03-01T12:28:29.767Z,65.70
2019-03-01T12:30:58.694Z,67.60
2019-03-01T12:33:27.616Z,68.70
2019-03-01T12:35:56.038Z,69.80
2019-03-01T12:38:24.512Z,69.90
2019-03-01T12:40:53.326Z,70.90
2019-03-01T12:43:22.015Z,71.50
2019-03-01T12:45:50.739Z,71.60
2019-03-01T12:48:19.377Z,73.00
2019-03-01T12:50:52.434Z,74.20
2019-03-01T12:53:21.515Z,72.70
2019-03-01T12:55:50.012Z,71.60
2019-03-01T12:58:19.694Z,71.30
2019-03-01T13:00:50.014Z,71.50
2019-03-01T13:03:18.853Z,71.80
2019-03-01T13:05:50.029Z,71.00
2019-03-01T13:08:19.062Z,69.40
2019-03-01T13:10:47.941Z,69.90
2019-03-01T13:13:16.985Z,70.40
2019-03-01T13:15:48.644Z,70.80
2019-03-01T13:18:16.866Z,70.40
2019-03-01T13:20:47.170Z,68.10
2019-03-01T13:23:16.041Z,68.20
2019-03-01T13:25:44.831Z,67.20
2019-03-01T13:28:15.349Z,67.80
2019-03-01T13:30:44.134Z,68.80
2019-03-01T13:33:13.025Z,67.20
2019-03-01T13:35:41.578Z,68.10
2019-03-01T13:38:10.086Z,66.30
2019-03-01T13:40:38.990Z,67.60
2019-03-01T13:43:07.556Z,68.20
2019-03-01T13:45:35.987Z,68.40
2019-03-01T13:48:04.604Z,69.90
2019-03-01T13:50:33.577Z,71.50
2019-03-01T13:53:02.567Z,75.20
2019-03-01T13:55:31.331Z,76.20
2019-03-01T13:58:00.034Z,76.10
2019-03-01T14:00:28.601Z,76.10
2019-03-01T14:02:57.432Z,75.30
2019-03-01T14:05:26.050Z,76.00
2019-03-01T14:07:56.964Z,74.20
2019-03-01T14:10:25.762Z,74.20
2019-03-01T14:12:54.376Z,75.80
2019-03-01T14:15:24.542Z,74.50
2019-03-01T14:17:53.349Z,73.20
2019-03-01T14:20:21.948Z,73.60
2019-03-01T14:22:50.859Z,74.40
2019-03-01T14:25:19.710Z,72.40
2019-03-01T14:27:50.165Z,72.00
2019-03-01T14:30:19.818Z,73.00
2019-03-01T14:32:48.290Z,75.30
2019-03-01T14:35:20.141Z,74.50
2019-03-01T14:37:53.972Z,76.20
2019-03-01T14:40:23.675Z,75.20
2019-03-01T14:42:52.716Z,75.40
2019-03-01T14:45:22.931Z,76.10
2019-03-01T14:47:52.061Z,75.30
2019-03-01T14:50:22.275Z,75.00
2019-03-01T14:52:56.627Z,75.00
2019-03-01T14:55:33.168Z,74.60
2019-03-01T14:58:10.687Z,75.10
2019-03-01T15:01:23.181Z,73.30
2019-03-01T15:03:53.572Z,74.20
2019-03-01T15:06:23.153Z,76.30
2019-03-01T15:08:51.818Z,74.50
2019-03-01T15:11:22.635Z,71.80
2019-03-01T15:13:53.277Z,71.70
2019-03-01T15:16:22.135Z,73.70
2019-03-01T15:18:50.859Z,72.90
2019-03-01T15:21:19.559Z,69.80
2019-03-01T15:23:48.114Z,71.90
2019-03-01T15:26:16.862Z,71.40
2019-03-01T15:28:55.397Z,69.50
2019-03-01T15:31:21.967Z,69.40
2019-03-01T15:33:50.490Z,68.60
2019-03-01T15:36:19.823Z,68.90
2019-03-01T15:38:48.244Z,69.90
2019-03-01T15:41:17.178Z,70.60
2019-03-01T15:43:45.971Z,69.20
2019-03-01T15:46:15.342Z,67.20
2019-03-01T15:48:44.297Z,68.10
2019-03-01T15:51:17.194Z,68.20
2019-03-01T15:53:47.498Z,68.00
2019-03-01T15:56:15.918Z,69.60
2019-03-01T15:58:46.405Z,68.70
2019-03-01T16:01:18.291Z,68.70
2019-03-01T16:03:48.170Z,67.30
2019-03-01T16:06:22.279Z,67.90
2019-03-01T16:08:49.385Z,68.30
2019-03-01T16:11:17.896Z,69.00
2019-03-01T16:13:49.144Z,68.00
2019-03-01T16:16:17.288Z,67.90
2019-03-01T16:18:45.738Z,68.60
2019-03-01T16:21:17.938Z,70.00
2019-03-01T16:23:46.850Z,70.20
2019-03-01T16:26:15.456Z,70.60
2019-03-01T16:28:44.074Z,71.20
2019-03-01T16:31:13.141Z,71.50
2019-03-01T16:33:41.830Z,72.20
2019-03-01T16:36:18.901Z,72.90
2019-03-01T16:38:48.862Z,72.80
2019-03-01T16:41:17.592Z,72.80
2019-03-01T16:43:46.185Z,73.90
2019-03-01T16:46:14.778Z,73.40
2019-03-01T16:48:43.265Z,74.10
2019-03-01T16:51:19.631Z,73.90
2019-03-01T16:53:48.357Z,74.50
2019-03-01T16:56:17.153Z,75.30
2019-03-01T16:58:45.856Z,75.30
2019-03-01T17:01:15.999Z,74.90
2019-03-01T17:03:44.612Z,76.00
2019-03-01T17:06:13.941Z,76.20
2019-03-01T17:08:43.646Z,75.50
2019-03-01T17:11:13.382Z,76.40
2019-03-01T17:13:42.316Z,76.40
2019-03-01T17:16:10.749Z,76.40
2019-03-01T17:18:39.446Z,77.30
2019-03-01T17:21:08.734Z,77.20
2019-03-01T17:23:40.376Z,77.90
2019-03-01T17:26:09.343Z,78.50
2019-03-01T17:28:37.940Z,79.00
2019-03-01T17:31:06.670Z,79.40
2019-03-01T17:33:35.786Z,79.80
2019-03-01T17:36:05.789Z,80.50
2019-03-01T17:38:34.312Z,81.20
2019-03-01T17:41:02.730Z,80.60
2019-03-01T17:43:32.765Z,81.10
2019-03-01T17:46:02.433Z,81.20
2019-03-01T17:48:30.837Z,81.90
2019-03-01T17:51:02.667Z,82.10
2019-03-01T17:53:33.180Z,82.50
2019-03-01T17:56:03.480Z,82.60
2019-03-01T17:58:34.012Z,84.00
2019-03-01T18:01:03.852Z,83.80
2019-03-01T18:03:32.455Z,83.60
2019-03-01T18:06:00.894Z,84.10
2019-03-01T18:08:29.624Z,84.70
2019-03-01T18:11:00.151Z,85.20
2019-03-01T18:13:29.263Z,85.40
2019-03-01T18:15:58.809Z,85.90
2019-03-01T18:18:27.453Z,86.70
2019-03-01T18:20:55.853Z,86.10
2019-03-01T18:23:24.561Z,86.60
2019-03-01T18:25:53.960Z,87.10
2019-03-01T18:28:24.889Z,87.30
2019-03-01T18:30:56.204Z,87.30
2019-03-01T18:33:23.736Z,87.80
2019-03-01T18:35:52.536Z,88.10
2019-03-01T18:38:22.855Z,88.40
2019-03-01T18:40:53.115Z,88.90
2019-03-01T18:43:22.701Z,89.00
2019-03-01T18:45:51.161Z,89.00
2019-03-01T18:48:19.841Z,89.50
2019-03-01T18:50:48.936Z,89.40
2019-03-01T18:53:17.636Z,89.00
2019-03-01T18:55:46.162Z,89.80
2019-03-01T18:58:15.404Z,90.00
2019-03-01T19:00:44.702Z,90.00
2019-03-01T19:03:15.493Z,89.80
2019-03-01T19:05:46.258Z,90.20
2019-03-01T19:08:14.672Z,90.20
2019-03-01T19:10:53.737Z,90.10
2019-03-01T19:13:16.613Z,90.10
2019-03-01T19:15:48.042Z,90.10
2019-03-01T19:18:16.903Z,90.30
2019-03-01T19:20:50.395Z,90.40
2019-03-01T19:23:20.191Z,90.40
2019-03-01T19:25:50.602Z,90.70
2019-03-01T19:28:19.033Z,91.10
2019-03-01T19:30:49.154Z,91.20
2019-03-01T19:33:18.142Z,91.30
2019-03-01T19:35:47.200Z,91.60
2019-03-01T19:38:15.761Z,91.80
2019-03-01T19:40:47.122Z,92.00
2019-03-01T19:43:16.499Z,92.10
2019-03-01T19:45:45.185Z,92.20
2019-03-01T19:48:13.625Z,92.40
2019-03-01T19:50:43.583Z,92.60
2019-03-01T19:53:12.470Z,92.90
2019-03-01T19:55:43.979Z,93.00
2019-03-01T19:58:11.976Z,94.20
2019-03-01T20:00:42.477Z,94.10
2019-03-01T20:03:12.076Z,94.20
2019-03-01T20:05:40.751Z,94.60
2019-03-01T20:08:09.369Z,94.70
2019-03-01T20:10:38.443Z,94.90
2019-03-01T20:13:06.860Z,95.00
2019-03-01T20:15:35.635Z,95.30
2019-03-01T20:18:06.765Z,95.20
2019-03-01T20:20:34.508Z,95.50
2019-03-01T20:23:06.303Z,95.70
2019-03-01T20:25:35.178Z,95.70
2019-03-01T20:28:03.728Z,95.90
2019-03-01T20:30:34.666Z,96.30
2019-03-01T20:33:03.054Z,96.50
2019-03-01T20:35:33.725Z,96.60
2019-03-01T20:38:04.567Z,96.70
2019-03-01T20:40:34.199Z,96.60
2019-03-01T20:43:06.798Z,96.60
2019-03-01T20:45:34.898Z,96.80
2019-03-01T20:48:03.621Z,96.90
2019-03-01T20:50:32.951Z,97.10
2019-03-01T20:53:01.836Z,97.20
2019-03-01T20:55:33.150Z,97.40
2019-03-01T20:58:03.062Z,97.50
2019-03-01T21:00:32.513Z,97.80
2019-03-01T21:03:01.295Z,97.90
2019-03-01T21:05:30.692Z,97.90
2019-03-01T21:08:00.955Z,98.00
2019-03-01T21:10:29.608Z,98.20
2019-03-01T21:12:58.301Z,98.20
2019-03-01T21:15:28.849Z,98.50
2019-03-01T21:17:58.722Z,98.70
2019-03-01T21:20:29.363Z,98.70
2019-03-01T21:22:58.507Z,98.80
2019-03-01T21:25:28.783Z,98.70
2019-03-01T21:28:00.886Z,98.70
2019-03-01T21:30:28.976Z,98.80
2019-03-01T21:32:59.723Z,98.90
2019-03-01T21:35:30.233Z,99.30
2019-03-01T21:37:58.759Z,99.20
2019-03-01T21:40:31.407Z,99.40
2019-03-01T21:43:00.136Z,99.50
2019-03-01T21:45:29.323Z,99.50
2019-03-01T21:47:57.870Z,99.90
2019-03-01T21:50:26.275Z,99.80
2019-03-01T21:52:55.124Z,99.90
2019-03-01T21:55:28.009Z,99.80
2019-03-01T21:57:55.182Z,99.90
2019-03-01T22:00:25.395Z,99.60
2019-03-01T22:02:54.390Z,99.60
2019-03-01T22:05:23.282Z,99.90
2019-03-01T22:07:52.118Z,99.90
2019-03-01T22:10:20.643Z,99.90
2019-03-01T22:12:49.062Z,99.90
2019-03-01T22:15:21.670Z,99.90
2019-03-01T22:17:51.629Z,99.90
2019-03-01T22:20:21.727Z,99.90
2019-03-01T22:22:50.352Z,99.90
2019-03-01T22:25:19.712Z,99.90
2019-03-01T22:27:48.244Z,99.90
2019-03-01T22:30:23.085Z,99.90
2019-03-01T22:32:51.914Z,99.90
2019-03-01T22:35:20.747Z,99.90
2019-03-01T22:37:50.251Z,99.90
2019-03-01T22:40:18.775Z,99.90
2019-03-01T22:42:49.687Z,99.90
2019-03-01T22:45:17.497Z,99.90
2019-03-01T22:47:46.001Z,99.90
2019-03-01T22:50:14.892Z,99.90
2019-03-01T22:52:43.366Z,99.90
2019-03-01T22:55:13.883Z,99.90
2019-03-01T22:57:44.161Z,99.90
2019-03-01T23:01:42.319Z,99.90
2019-03-01T23:04:11.565Z,99.90
2019-03-01T23:06:40.081Z,99.90
2019-03-01T23:09:13.618Z,99.90
2019-03-01T23:11:42.216Z,99.90
2019-03-01T23:14:10.645Z,99.90
2019-03-01T23:16:39.670Z,99.90
2019-03-01T23:19:08.193Z,99.90
2019-03-01T23:21:38.402Z,99.90
2019-03-01T23:24:06.882Z,99.90
2019-03-01T23:26:35.319Z,99.90
2019-03-01T23:29:03.905Z,99.90
2019-03-01T23:31:35.610Z,99.90
2019-03-01T23:34:03.623Z,99.90
2019-03-01T23:36:33.162Z,99.90
2019-03-01T23:39:01.598Z,99.90
2019-03-01T23:41:30.199Z,99.90
2019-03-01T23:44:02.830Z,99.90
2019-03-01T23:46:29.941Z,99.90
2019-03-01T23:49:05.969Z,99.90
2019-03-01T23:51:33.321Z,99.90
2019-03-01T23:54:02.256Z,99.90
2019-03-01T23:56:30.908Z,99.90
2019-03-01T23:59:01.105Z,99.90
